createdAt,value
2017-01-20T00:00:37.067Z,90
2017-01-20T00:01:40.018Z,90
2017-01-20T00:02:43.473Z,90.1
2017-01-20T00:03:46.417Z,90
2017-01-20T00:04:49.365Z,90.1
2017-01-20T00:05:52.309Z,90
2017-01-20T00:06:55.265Z,90.1
2017-01-20T00:07:58.711Z,90.1
2017-01-20T00:09:01.659Z,90.1
2017-01-20T00:10:04.624Z,90.1
2017-01-20T00:11:07.573Z,90.1
2017-01-20T00:12:11.027Z,90.1
2017-01-20T00:13:13.980Z,90.1
2017-01-20T00:14:16.919Z,90.1
2017-01-20T00:15:19.869Z,90.1
2017-01-20T00:16:22.827Z,90.1
2017-01-20T00:17:25.950Z,90.1
2017-01-20T00:18:29.421Z,90.1
2017-01-20T00:19:32.366Z,90.1
2017-01-20T00:20:35.482Z,90.1
2017-01-20T00:21:38.427Z,90.1
2017-01-20T00:22:41.372Z,90.1
2017-01-20T00:23:44.585Z,90.1
2017-01-20T00:24:47.534Z,90.1
2017-01-20T00:25:50.472Z,90.1
2017-01-20T00:26:53.917Z,90.1
2017-01-20T00:27:56.867Z,90.1
2017-01-20T00:28:59.808Z,90.1
2017-01-20T00:30:02.752Z,90.1
2017-01-20T00:31:06.198Z,90.2
2017-01-20T00:32:09.141Z,90.2
2017-01-20T00:34:14.993Z,90.2
2017-01-20T00:35:18.444Z,90.2
2017-01-20T00:36:21.388Z,90.2
2017-01-20T00:37:24.399Z,90.2
2017-01-20T00:38:27.343Z,90.2
2017-01-20T00:39:30.295Z,90.2
2017-01-20T00:40:33.747Z,90.2
2017-01-20T00:41:36.698Z,90.2
2017-01-20T00:42:39.645Z,90.2
2017-01-20T00:43:42.593Z,90.2
2017-01-20T00:44:46.043Z,90.2
2017-01-20T00:45:48.986Z,90.2
2017-01-20T00:46:51.998Z,90.2
2017-01-20T00:47:54.938Z,90.2
2017-01-20T00:48:57.883Z,90.2
2017-01-20T00:50:01.331Z,90.2
2017-01-20T00:51:04.276Z,90.2
2017-01-20T00:52:07.219Z,90.2
2017-01-20T00:53:10.347Z,90.2
2017-01-20T00:54:13.299Z,90.2
2017-01-20T00:55:16.252Z,90.2
2017-01-20T00:56:19.700Z,90.2
2017-01-20T00:57:22.639Z,90.2
2017-01-20T00:58:25.580Z,90.2
2017-01-20T00:59:28.528Z,90.3
2017-01-20T01:01:34.881Z,90.3
2017-01-20T01:02:37.825Z,90.3
2017-01-20T01:03:41.282Z,90.3
2017-01-20T01:04:44.233Z,90.3
2017-01-20T01:05:47.181Z,90.3
2017-01-20T01:06:50.127Z,90.3
2017-01-20T01:07:53.070Z,90.3
2017-01-20T01:08:56.520Z,90.3
2017-01-20T01:09:59.466Z,90.3
2017-01-20T01:11:02.413Z,90.3
2017-01-20T01:12:05.357Z,90.3
2017-01-20T01:13:08.806Z,90.3
2017-01-20T01:14:11.745Z,90.3
2017-01-20T01:15:14.689Z,90.3
2017-01-20T01:16:17.634Z,90.3
2017-01-20T01:17:21.086Z,90.3
2017-01-20T01:18:24.033Z,90.3
2017-01-20T01:19:27.038Z,90.3
2017-01-20T01:20:29.981Z,90.3
2017-01-20T01:21:32.928Z,90.3
2017-01-20T01:22:36.378Z,90.3
2017-01-20T01:23:39.317Z,90.3
2017-01-20T01:25:45.670Z,90.4
2017-01-20T01:26:48.611Z,90.4
2017-01-20T01:27:51.561Z,90.4
2017-01-20T01:28:54.501Z,90.4
2017-01-20T01:29:57.948Z,90.4
2017-01-20T01:31:00.957Z,90.4
2017-01-20T01:32:03.909Z,90.4
2017-01-20T01:33:06.853Z,90.4
2017-01-20T01:34:09.796Z,90.4
2017-01-20T01:36:16.150Z,90.4
2017-01-20T01:37:19.099Z,90.4
2017-01-20T01:38:22.039Z,90.4
2017-01-20T01:39:25.492Z,90.4
2017-01-20T01:40:28.448Z,90.4
2017-01-20T01:41:31.426Z,90.4
2017-01-20T01:42:34.373Z,90.4
2017-01-20T01:43:37.822Z,90.4
2017-01-20T01:44:40.770Z,90.4
2017-01-20T01:45:43.720Z,90.4
2017-01-20T01:46:46.662Z,90.4
2017-01-20T01:47:50.110Z,90.4
2017-01-20T01:48:53.049Z,90.4
2017-01-20T01:49:55.989Z,90.4
2017-01-20T01:50:58.935Z,90.4
2017-01-20T01:52:02.385Z,90.4
2017-01-20T01:53:05.333Z,90.4
2017-01-20T01:54:08.276Z,90.5
2017-01-20T01:55:11.222Z,90.5
2017-01-20T01:56:14.169Z,90.5
2017-01-20T01:57:17.620Z,90.5
2017-01-20T01:58:20.560Z,90.5
2017-01-20T01:59:23.502Z,90.5
2017-01-20T02:00:26.446Z,90.5
2017-01-20T02:01:29.895Z,90.5
2017-01-20T02:02:32.847Z,90.5
2017-01-20T02:03:35.796Z,90.5
2017-01-20T02:04:38.739Z,90.5
2017-01-20T02:05:42.189Z,90.5
2017-01-20T02:06:45.139Z,90.5
2017-01-20T02:07:48.087Z,90.5
2017-01-20T02:08:51.028Z,90.5
2017-01-20T02:10:57.385Z,90.5
2017-01-20T02:12:00.331Z,90.5
2017-01-20T02:13:03.442Z,90.5
2017-01-20T02:14:06.383Z,90.5
2017-01-20T02:15:09.831Z,90.5
2017-01-20T02:17:15.683Z,90.5
2017-01-20T02:18:18.625Z,90.5
2017-01-20T02:19:22.068Z,90.5
2017-01-20T02:20:25.015Z,90.5
2017-01-20T02:21:27.960Z,90.5
2017-01-20T02:22:30.905Z,90.5
2017-01-20T02:23:34.350Z,90.5
2017-01-20T02:24:37.299Z,90.5
2017-01-20T02:25:40.251Z,90.5
2017-01-20T02:26:43.195Z,90.5
2017-01-20T02:27:46.644Z,90.5
2017-01-20T02:28:49.584Z,90.5
2017-01-20T02:29:52.527Z,90.6
2017-01-20T02:30:55.474Z,90.6
2017-01-20T02:31:58.919Z,90.6
2017-01-20T02:33:01.863Z,90.6
2017-01-20T02:34:04.807Z,90.6
2017-01-20T02:35:07.748Z,90.6
2017-01-20T02:36:11.195Z,90.6
2017-01-20T02:37:14.139Z,90.6
2017-01-20T02:38:17.078Z,90.6
2017-01-20T02:39:20.023Z,90.6
2017-01-20T02:40:23.473Z,90.6
2017-01-20T02:42:29.322Z,90.6
2017-01-20T02:43:32.770Z,90.6
2017-01-20T02:44:35.717Z,90.6
2017-01-20T02:45:38.653Z,90.6
2017-01-20T02:46:41.596Z,90.6
2017-01-20T02:47:45.049Z,90.6
2017-01-20T02:48:47.991Z,90.6
2017-01-20T02:49:50.934Z,90.6
2017-01-20T02:50:53.876Z,90.6
2017-01-20T02:51:57.324Z,90.6
2017-01-20T02:53:00.273Z,90.6
2017-01-20T02:54:03.217Z,90.6
2017-01-20T02:55:06.164Z,90.6
2017-01-20T02:56:09.611Z,90.6
2017-01-20T02:57:12.560Z,90.7
2017-01-20T02:58:15.505Z,90.7
2017-01-20T02:59:18.449Z,90.7
2017-01-20T03:00:21.458Z,90.7
2017-01-20T03:01:24.910Z,90.7
2017-01-20T03:02:27.857Z,90.7
2017-01-20T03:03:30.800Z,90.7
2017-01-20T03:04:33.748Z,90.7
2017-01-20T03:05:37.196Z,90.7
2017-01-20T03:06:40.210Z,90.7
2017-01-20T03:07:43.155Z,90.7
2017-01-20T03:08:46.161Z,90.7
2017-01-20T03:09:49.103Z,90.7
2017-01-20T03:10:52.548Z,90.7
2017-01-20T03:11:55.489Z,90.7
2017-01-20T03:12:58.433Z,90.7
2017-01-20T03:14:01.881Z,90.7
2017-01-20T03:15:04.828Z,90.7
2017-01-20T03:16:07.774Z,90.7
2017-01-20T03:17:10.722Z,90.7
2017-01-20T03:18:14.170Z,90.7
2017-01-20T03:19:17.112Z,90.7
2017-01-20T03:20:20.058Z,90.7
2017-01-20T03:21:23.006Z,90.7
2017-01-20T03:22:26.459Z,90.7
2017-01-20T03:23:29.433Z,90.7
2017-01-20T03:25:35.281Z,90.7
2017-01-20T03:26:38.730Z,90.7
2017-01-20T03:27:41.673Z,90.7
2017-01-20T03:28:44.616Z,90.7
2017-01-20T03:29:47.559Z,90.7
2017-01-20T03:30:51.017Z,90.7
2017-01-20T03:31:53.967Z,90.7
2017-01-20T03:32:56.913Z,90.8
2017-01-20T03:33:59.860Z,90.8
2017-01-20T03:35:03.311Z,90.8
2017-01-20T03:36:06.256Z,90.8
2017-01-20T03:37:09.204Z,90.8
2017-01-20T03:38:12.147Z,90.8
2017-01-20T03:39:15.594Z,90.8
2017-01-20T03:40:18.542Z,90.8
2017-01-20T03:41:21.491Z,90.8
2017-01-20T03:42:24.441Z,90.8
2017-01-20T03:43:27.889Z,90.8
2017-01-20T03:44:30.836Z,90.8
2017-01-20T03:45:33.781Z,90.8
2017-01-20T03:46:36.726Z,90.8
2017-01-20T03:47:39.738Z,90.8
2017-01-20T03:48:43.185Z,90.8
2017-01-20T03:49:46.126Z,90.8
2017-01-20T03:50:49.067Z,90.8
2017-01-20T03:51:52.518Z,90.8
2017-01-20T03:52:55.465Z,90.8
2017-01-20T03:53:58.417Z,90.8
2017-01-20T03:55:01.366Z,90.8
2017-01-20T03:56:04.315Z,90.8
2017-01-20T03:57:07.765Z,90.8
2017-01-20T03:58:10.707Z,90.8
2017-01-20T03:59:13.658Z,90.8
2017-01-20T04:00:16.600Z,90.8
2017-01-20T04:01:20.051Z,90.8
2017-01-20T04:02:22.997Z,90.8
2017-01-20T04:03:25.949Z,90.8
2017-01-20T04:04:28.895Z,90.8
2017-01-20T04:05:32.344Z,90.8
2017-01-20T04:06:35.292Z,90.8
2017-01-20T04:07:38.237Z,90.9
2017-01-20T04:08:41.690Z,90.9
2017-01-20T04:09:44.632Z,90.9
2017-01-20T04:10:47.580Z,90.9
2017-01-20T04:11:50.527Z,90.9
2017-01-20T04:12:53.974Z,90.9
2017-01-20T04:13:56.917Z,90.9
2017-01-20T04:14:59.863Z,90.9
2017-01-20T04:16:02.805Z,90.9
2017-01-20T04:17:06.255Z,90.9
2017-01-20T04:18:09.200Z,90.9
2017-01-20T04:19:12.143Z,90.9
2017-01-20T04:20:15.099Z,90.9
2017-01-20T04:21:18.550Z,90.9
2017-01-20T04:23:24.404Z,90.9
2017-01-20T04:24:27.355Z,90.9
2017-01-20T04:25:30.809Z,90.9
2017-01-20T04:27:36.665Z,90.9
2017-01-20T04:28:39.609Z,90.9
2017-01-20T04:29:43.079Z,90.9
2017-01-20T04:30:46.029Z,90.9
2017-01-20T04:31:48.978Z,90.9
2017-01-20T04:32:51.922Z,90.9
2017-01-20T04:33:55.368Z,90.9
2017-01-20T04:34:58.316Z,90.9
2017-01-20T04:36:01.265Z,90.9
2017-01-20T04:37:04.215Z,90.9
2017-01-20T04:38:07.661Z,90.9
2017-01-20T04:39:10.606Z,90.9
2017-01-20T04:40:13.554Z,90.9
2017-01-20T04:41:17.005Z,90.9
2017-01-20T04:42:19.954Z,90.9
2017-01-20T04:43:22.896Z,90.9
2017-01-20T04:44:25.840Z,90.9
2017-01-20T04:45:29.287Z,91
2017-01-20T04:46:32.239Z,91
2017-01-20T04:47:35.183Z,91
2017-01-20T04:48:38.123Z,91
2017-01-20T04:49:41.595Z,91
2017-01-20T04:50:44.545Z,91
2017-01-20T04:51:47.492Z,91
2017-01-20T04:52:50.441Z,91
2017-01-20T04:53:53.893Z,91
2017-01-20T04:54:56.839Z,91
2017-01-20T04:55:59.791Z,91
2017-01-20T04:57:02.738Z,91
2017-01-20T04:58:06.192Z,91
2017-01-20T04:59:09.168Z,91
2017-01-20T05:00:12.114Z,91
2017-01-20T05:01:15.060Z,91
2017-01-20T05:02:18.512Z,91
2017-01-20T05:03:21.452Z,91
2017-01-20T05:04:24.406Z,91
2017-01-20T05:05:27.355Z,91
2017-01-20T05:06:30.803Z,91
2017-01-20T05:07:33.749Z,91
2017-01-20T05:08:36.700Z,91
2017-01-20T05:09:39.663Z,91
2017-01-20T05:10:43.109Z,91
2017-01-20T05:11:46.060Z,91
2017-01-20T05:12:49.003Z,91
2017-01-20T05:13:51.951Z,91
2017-01-20T05:14:55.400Z,91
2017-01-20T05:15:58.344Z,91
2017-01-20T05:17:01.296Z,91
2017-01-20T05:19:07.656Z,91
2017-01-20T05:20:10.601Z,91
2017-01-20T05:21:13.545Z,91
2017-01-20T05:22:16.495Z,91
2017-01-20T05:23:19.940Z,91
2017-01-20T05:24:22.882Z,91
2017-01-20T05:25:25.824Z,91
2017-01-20T05:26:28.770Z,91
2017-01-20T05:27:33.578Z,91.1
2017-01-20T05:28:35.013Z,91.1
2017-01-20T05:29:38.461Z,91.1
2017-01-20T05:30:41.404Z,91.1
2017-01-20T05:31:44.351Z,91.1
2017-01-20T05:32:47.295Z,91.1
2017-01-20T05:33:50.744Z,91.1
2017-01-20T05:34:53.693Z,91.1
2017-01-20T05:35:56.636Z,91.1
2017-01-20T05:36:59.593Z,91.1
2017-01-20T05:39:05.951Z,91.1
2017-01-20T05:40:08.894Z,91.1
2017-01-20T05:41:11.840Z,91.1
2017-01-20T05:42:15.292Z,91.1
2017-01-20T05:43:18.239Z,91.1
2017-01-20T05:44:21.182Z,91.1
2017-01-20T05:45:24.129Z,91.1
2017-01-20T05:46:27.583Z,91.1
2017-01-20T05:47:30.531Z,91.1
2017-01-20T05:48:33.479Z,91.1
2017-01-20T05:49:36.928Z,91.1
2017-01-20T05:50:39.878Z,91.1
2017-01-20T05:51:42.824Z,91.1
2017-01-20T05:52:45.772Z,91.1
2017-01-20T05:53:49.221Z,91.1
2017-01-20T05:54:52.166Z,91.1
2017-01-20T05:56:58.018Z,91.1
2017-01-20T05:58:01.539Z,91.1
2017-01-20T05:59:04.490Z,91.1
2017-01-20T06:00:07.460Z,91.1
2017-01-20T06:01:10.409Z,91.1
2017-01-20T06:02:13.362Z,91.1
2017-01-20T06:03:16.811Z,91.1
2017-01-20T06:04:19.759Z,91.1
2017-01-20T06:05:22.706Z,91.1
2017-01-20T06:07:29.065Z,91.1
2017-01-20T06:08:32.010Z,91.1
2017-01-20T06:09:34.956Z,91.1
2017-01-20T06:10:38.403Z,91.1
2017-01-20T06:11:41.346Z,91.1
2017-01-20T06:12:44.289Z,91.1
2017-01-20T06:13:47.244Z,91.1
2017-01-20T06:14:50.695Z,91.1
2017-01-20T06:15:53.640Z,91.1
2017-01-20T06:16:56.651Z,91.1
2017-01-20T06:17:59.597Z,91.1
2017-01-20T06:19:03.048Z,91.1
2017-01-20T06:20:05.993Z,91.1
2017-01-20T06:21:08.940Z,91.1
2017-01-20T06:22:11.890Z,91.1
2017-01-20T06:23:15.337Z,91.1
2017-01-20T06:24:18.288Z,91.1
2017-01-20T06:25:21.237Z,91.1
2017-01-20T06:26:24.248Z,91.1
2017-01-20T06:27:27.698Z,91.1
2017-01-20T06:28:30.641Z,91.1
2017-01-20T06:29:33.582Z,91.1
2017-01-20T06:30:36.528Z,91.2
2017-01-20T06:31:39.971Z,91.2
2017-01-20T06:32:42.916Z,91.1
2017-01-20T06:33:45.861Z,91.1
2017-01-20T06:34:48.809Z,91.1
2017-01-20T06:35:52.255Z,91.1
2017-01-20T06:36:55.208Z,91.1
2017-01-20T06:37:58.153Z,91.1
2017-01-20T06:39:01.609Z,91.1
2017-01-20T06:40:04.557Z,91.1
2017-01-20T06:41:07.500Z,91.1
2017-01-20T06:42:10.510Z,91.1
2017-01-20T06:43:13.451Z,91.1
2017-01-20T06:44:16.905Z,91.1
2017-01-20T06:45:19.860Z,91.1
2017-01-20T06:46:22.877Z,91.1
2017-01-20T06:47:25.843Z,91.1
2017-01-20T06:48:29.288Z,91.1
2017-01-20T06:49:32.238Z,91.1
2017-01-20T06:50:35.186Z,91.2
2017-01-20T06:51:38.131Z,91.2
2017-01-20T06:52:41.580Z,91.2
2017-01-20T06:53:44.527Z,91.2
2017-01-20T06:54:47.479Z,91.2
2017-01-20T06:55:50.431Z,91.2
2017-01-20T06:56:53.884Z,91.2
2017-01-20T06:57:56.841Z,91.2
2017-01-20T06:58:59.785Z,91.2
2017-01-20T07:00:03.235Z,91.2
2017-01-20T07:02:09.092Z,91.2
2017-01-20T07:03:12.035Z,91.2
2017-01-20T07:04:15.486Z,91.2
2017-01-20T07:05:18.431Z,91.2
2017-01-20T07:06:21.377Z,91.2
2017-01-20T07:07:24.327Z,91.2
2017-01-20T07:08:27.774Z,91.2
2017-01-20T07:09:30.727Z,91.2
2017-01-20T07:10:33.842Z,91.2
2017-01-20T07:11:36.785Z,91.2
2017-01-20T07:12:40.232Z,91.2
2017-01-20T07:13:43.178Z,91.2
2017-01-20T07:14:46.134Z,91.2
2017-01-20T07:15:49.082Z,91.2
2017-01-20T07:16:52.530Z,91.2
2017-01-20T07:17:55.475Z,91.2
2017-01-20T07:18:58.422Z,91.2
2017-01-20T07:20:01.371Z,91.2
2017-01-20T07:21:04.826Z,91.3
2017-01-20T07:22:07.774Z,91.3
2017-01-20T07:23:10.784Z,91.3
2017-01-20T07:24:13.747Z,91.3
2017-01-20T07:25:16.763Z,91.3
2017-01-20T07:26:20.215Z,91.3
2017-01-20T07:27:23.166Z,91.3
2017-01-20T07:28:26.114Z,91.3
2017-01-20T07:29:29.266Z,91.3
2017-01-20T07:30:32.212Z,91.3
2017-01-20T07:32:38.566Z,91.3
2017-01-20T07:33:41.510Z,91.3
2017-01-20T07:34:44.960Z,91.3
2017-01-20T07:35:47.909Z,91.3
2017-01-20T07:36:50.919Z,91.3
2017-01-20T07:37:53.875Z,91.3
2017-01-20T07:38:57.325Z,91.3
2017-01-20T07:40:00.277Z,91.3
2017-01-20T07:41:03.220Z,91.3
2017-01-20T07:42:06.176Z,91.4
2017-01-20T07:43:09.630Z,91.4
2017-01-20T07:44:12.578Z,91.4
2017-01-20T07:45:15.525Z,91.4
2017-01-20T07:46:18.973Z,91.4
2017-01-20T07:47:21.942Z,91.4
2017-01-20T07:48:24.885Z,91.4
2017-01-20T07:49:27.832Z,91.4
2017-01-20T07:50:31.277Z,91.4
2017-01-20T07:51:34.226Z,91.4
2017-01-20T07:52:37.175Z,91.4
2017-01-20T07:53:40.125Z,91.4
2017-01-20T07:54:43.242Z,91.4
2017-01-20T07:55:46.696Z,91.4
2017-01-20T07:56:49.642Z,91.4
2017-01-20T07:57:52.593Z,91.4
2017-01-20T07:58:56.045Z,91.4
2017-01-20T07:59:58.989Z,91.4
2017-01-20T08:01:01.931Z,91.4
2017-01-20T08:02:04.883Z,91.4
2017-01-20T08:03:08.330Z,91.4
2017-01-20T08:04:11.276Z,91.4
2017-01-20T08:05:14.220Z,91.4
2017-01-20T08:06:17.667Z,91.4
2017-01-20T08:07:20.609Z,91.4
2017-01-20T08:08:23.561Z,91.4
2017-01-20T08:09:26.508Z,91.4
2017-01-20T08:10:29.955Z,91.4
2017-01-20T08:11:32.905Z,91.4
2017-01-20T08:12:35.856Z,91.4
2017-01-20T08:13:39.306Z,91.4
2017-01-20T08:14:42.251Z,91.4
2017-01-20T08:15:45.198Z,91.4
2017-01-20T08:16:48.149Z,91.4
2017-01-20T08:17:51.597Z,91.4
2017-01-20T08:18:54.546Z,91.5
2017-01-20T08:19:57.489Z,91.5
2017-01-20T08:21:00.948Z,91.5
2017-01-20T08:22:03.898Z,91.5
2017-01-20T08:23:06.844Z,91.5
2017-01-20T08:24:09.795Z,91.5
2017-01-20T08:25:13.242Z,91.5
2017-01-20T08:26:16.189Z,91.5
2017-01-20T08:27:19.136Z,91.5
2017-01-20T08:28:22.589Z,91.5
2017-01-20T08:29:25.527Z,91.5
2017-01-20T08:30:28.474Z,91.5
2017-01-20T08:31:31.443Z,91.5
2017-01-20T08:32:34.891Z,91.5
2017-01-20T08:33:37.848Z,91.5
2017-01-20T08:34:40.793Z,91.5
2017-01-20T08:35:44.243Z,91.5
2017-01-20T08:36:47.191Z,91.5
2017-01-20T08:37:50.136Z,91.5
2017-01-20T08:39:56.491Z,91.5
2017-01-20T08:40:59.437Z,91.5
2017-01-20T08:42:02.386Z,91.5
2017-01-20T08:43:05.833Z,91.5
2017-01-20T08:44:08.777Z,91.5
2017-01-20T08:45:11.729Z,91.5
2017-01-20T08:46:14.740Z,91.5
2017-01-20T08:47:18.188Z,91.5
2017-01-20T08:48:21.135Z,91.5
2017-01-20T08:49:24.082Z,91.5
2017-01-20T08:50:27.530Z,91.5
2017-01-20T08:51:30.478Z,91.5
2017-01-20T08:52:33.430Z,91.5
2017-01-20T08:53:36.879Z,91.5
2017-01-20T08:55:42.736Z,91.5
2017-01-20T08:56:45.681Z,91.5
2017-01-20T08:57:49.129Z,91.5
2017-01-20T08:58:52.080Z,91.5
2017-01-20T08:59:55.021Z,91.5
2017-01-20T09:00:58.469Z,91.5
2017-01-20T09:02:01.418Z,91.5
2017-01-20T09:03:04.371Z,91.6
2017-01-20T09:04:07.391Z,91.6
2017-01-20T09:05:10.842Z,91.6
2017-01-20T09:06:13.794Z,91.6
2017-01-20T09:08:20.148Z,91.6
2017-01-20T09:09:23.116Z,91.6
2017-01-20T09:10:26.063Z,91.6
2017-01-20T09:11:29.515Z,91.6
2017-01-20T09:12:32.463Z,91.6
2017-01-20T09:13:35.408Z,91.6
2017-01-20T09:14:38.348Z,91.6
2017-01-20T09:15:41.803Z,91.6
2017-01-20T09:16:44.748Z,91.6
2017-01-20T09:17:47.701Z,91.6
2017-01-20T09:18:51.320Z,91.6
2017-01-20T09:19:54.263Z,91.6
2017-01-20T09:20:57.207Z,91.6
2017-01-20T09:22:00.156Z,91.6
2017-01-20T09:24:06.519Z,91.6
2017-01-20T09:25:09.630Z,91.6
2017-01-20T09:26:12.575Z,91.6
2017-01-20T09:27:16.031Z,91.6
2017-01-20T09:28:18.978Z,91.6
2017-01-20T09:29:21.920Z,91.6
2017-01-20T09:30:24.866Z,91.6
2017-01-20T09:31:28.323Z,91.6
2017-01-20T09:32:31.269Z,91.6
2017-01-20T09:33:34.216Z,91.6
2017-01-20T09:34:37.665Z,91.6
2017-01-20T09:35:40.612Z,91.5
2017-01-20T09:36:43.557Z,91.5
2017-01-20T09:37:47.007Z,91.5
2017-01-20T09:38:49.956Z,91.5
2017-01-20T09:39:52.899Z,91.5
2017-01-20T09:40:56.354Z,91.5
2017-01-20T09:43:02.206Z,91.5
2017-01-20T09:44:05.657Z,91.5
2017-01-20T09:45:08.602Z,91.5
2017-01-20T09:46:11.551Z,91.5
2017-01-20T09:47:15.014Z,91.5
2017-01-20T09:48:17.968Z,91.5
2017-01-20T09:49:20.914Z,91.5
2017-01-20T09:50:23.855Z,91.5
2017-01-20T09:51:27.304Z,91.5
2017-01-20T09:52:30.247Z,91.5
2017-01-20T09:53:33.203Z,91.5
2017-01-20T09:54:36.655Z,91.5
2017-01-20T09:55:39.599Z,91.5
2017-01-20T09:56:42.549Z,91.5
2017-01-20T09:57:45.995Z,91.5
2017-01-20T09:58:48.941Z,91.5
2017-01-20T09:59:51.885Z,91.5
2017-01-20T10:00:55.330Z,91.5
2017-01-20T10:01:58.279Z,91.5
2017-01-20T10:03:01.227Z,91.5
2017-01-20T10:04:04.676Z,91.5
2017-01-20T10:05:07.621Z,91.6
2017-01-20T10:06:10.567Z,91.6
2017-01-20T10:07:14.020Z,91.6
2017-01-20T10:08:16.964Z,91.6
2017-01-20T10:09:19.909Z,91.6
2017-01-20T10:10:23.358Z,91.6
2017-01-20T10:11:26.308Z,91.6
2017-01-20T10:12:29.255Z,91.6
2017-01-20T10:13:32.705Z,91.6
2017-01-20T10:14:35.648Z,91.6
2017-01-20T10:15:38.590Z,91.6
2017-01-20T10:16:42.043Z,91.6
2017-01-20T10:17:44.990Z,91.6
2017-01-20T10:18:47.943Z,91.6
2017-01-20T10:19:51.394Z,91.7
2017-01-20T10:20:54.408Z,91.7
2017-01-20T10:21:57.358Z,91.7
2017-01-20T10:23:00.316Z,91.7
2017-01-20T10:24:03.775Z,91.7
2017-01-20T10:25:06.727Z,91.7
2017-01-20T10:26:09.676Z,91.7
2017-01-20T10:27:13.124Z,91.7
2017-01-20T10:28:16.073Z,91.7
2017-01-20T10:29:19.020Z,91.7
2017-01-20T10:30:22.509Z,91.7
2017-01-20T10:31:25.524Z,91.7
2017-01-20T10:32:28.559Z,91.7
2017-01-20T10:33:31.501Z,91.7
2017-01-20T10:34:34.953Z,91.7
2017-01-20T10:35:37.902Z,91.7
2017-01-20T10:36:40.852Z,91.7
2017-01-20T10:37:44.365Z,91.7
2017-01-20T10:38:47.313Z,91.7
2017-01-20T10:39:50.281Z,91.7
2017-01-20T10:40:53.227Z,91.7
2017-01-20T10:41:56.737Z,91.7
2017-01-20T10:42:59.681Z,91.7
2017-01-20T10:44:02.629Z,91.7
2017-01-20T10:45:06.078Z,91.7
2017-01-20T10:46:09.033Z,91.7
2017-01-20T10:47:11.983Z,91.7
2017-01-20T10:49:18.339Z,91.7
2017-01-20T10:50:21.286Z,91.7
2017-01-20T10:51:24.739Z,91.7
2017-01-20T10:52:27.690Z,91.7
2017-01-20T10:53:30.635Z,91.7
2017-01-20T10:54:34.089Z,91.7
2017-01-20T10:55:37.033Z,91.7
2017-01-20T10:56:39.979Z,91.7
2017-01-20T10:57:43.435Z,91.7
2017-01-20T10:58:46.386Z,91.7
2017-01-20T10:59:49.335Z,91.6
2017-01-20T11:00:52.787Z,91.6
2017-01-20T11:01:55.903Z,91.6
2017-01-20T11:02:58.848Z,91.6
2017-01-20T11:04:02.298Z,91.6
2017-01-20T11:06:08.152Z,91.6
2017-01-20T11:07:11.605Z,91.6
2017-01-20T11:08:14.548Z,91.6
2017-01-20T11:09:17.505Z,91.6
2017-01-20T11:10:20.961Z,91.6
2017-01-20T11:11:23.907Z,91.6
2017-01-20T11:12:26.852Z,91.6
2017-01-20T11:13:30.308Z,91.5
2017-01-20T11:14:33.250Z,91.5
2017-01-20T11:15:36.197Z,91.6
2017-01-20T11:17:42.555Z,91.6
2017-01-20T11:18:46.006Z,91.6
2017-01-20T11:19:48.950Z,91.6
2017-01-20T11:20:51.898Z,91.6
2017-01-20T11:21:55.349Z,91.6
2017-01-20T11:22:58.291Z,91.6
2017-01-20T11:24:01.237Z,91.6
2017-01-20T11:25:04.693Z,91.6
2017-01-20T11:26:07.650Z,91.6
2017-01-20T11:27:10.600Z,91.6
2017-01-20T11:28:14.076Z,91.6
2017-01-20T11:29:17.025Z,91.6
2017-01-20T11:30:19.971Z,91.6
2017-01-20T11:31:23.416Z,91.6
2017-01-20T11:32:26.362Z,91.6
2017-01-20T11:33:29.307Z,91.6
2017-01-20T11:34:32.757Z,91.6
2017-01-20T11:35:35.703Z,91.7
2017-01-20T11:36:38.655Z,91.7
2017-01-20T11:37:42.106Z,91.7
2017-01-20T11:38:45.061Z,91.7
2017-01-20T11:39:48.512Z,91.7
2017-01-20T11:40:51.460Z,91.7
2017-01-20T11:41:54.406Z,91.7
2017-01-20T11:44:00.762Z,91.7
2017-01-20T11:45:03.708Z,91.7
2017-01-20T11:46:07.155Z,91.7
2017-01-20T11:47:10.109Z,91.7
2017-01-20T11:48:13.056Z,91.7
2017-01-20T11:49:16.507Z,91.7
2017-01-20T11:50:19.458Z,91.7
2017-01-20T11:51:22.907Z,91.8
2017-01-20T11:52:25.851Z,91.8
2017-01-20T11:53:28.797Z,91.8
2017-01-20T11:54:32.250Z,91.8
2017-01-20T11:55:35.196Z,91.8
2017-01-20T11:56:38.147Z,91.8
2017-01-20T11:57:41.600Z,91.8
2017-01-20T11:58:44.551Z,91.8
2017-01-20T11:59:47.500Z,91.8
2017-01-20T12:00:50.945Z,91.8
2017-01-20T12:01:53.891Z,91.8
2017-01-20T12:02:57.340Z,91.8
2017-01-20T12:04:00.283Z,91.8
2017-01-20T12:05:03.238Z,91.8
2017-01-20T12:06:06.782Z,91.8
2017-01-20T12:07:09.726Z,91.8
2017-01-20T12:08:12.674Z,91.8
2017-01-20T12:09:16.122Z,91.8
2017-01-20T12:10:19.072Z,91.8
2017-01-20T12:11:22.018Z,91.8
2017-01-20T12:12:25.464Z,91.8
2017-01-20T12:13:28.412Z,91.9
2017-01-20T12:14:31.361Z,91.8
2017-01-20T12:15:34.810Z,91.8
2017-01-20T12:16:37.757Z,91.8
2017-01-20T12:17:40.706Z,91.8
2017-01-20T12:18:44.154Z,91.8
2017-01-20T12:19:47.098Z,91.8
2017-01-20T12:20:50.552Z,91.8
2017-01-20T12:21:53.499Z,91.8
2017-01-20T12:22:56.452Z,91.8
2017-01-20T12:23:59.901Z,91.8
2017-01-20T12:25:02.849Z,91.8
2017-01-20T12:26:05.865Z,91.8
2017-01-20T12:27:09.315Z,91.9
2017-01-20T12:28:12.257Z,91.8
2017-01-20T12:29:15.208Z,91.8
2017-01-20T12:30:18.716Z,91.9
2017-01-20T12:31:21.662Z,91.9
2017-01-20T12:32:24.613Z,91.9
2017-01-20T12:33:28.066Z,91.9
2017-01-20T12:34:31.009Z,91.9
2017-01-20T12:35:34.457Z,91.9
2017-01-20T12:36:37.396Z,91.9
2017-01-20T12:37:40.347Z,91.9
2017-01-20T12:38:43.801Z,91.9
2017-01-20T12:39:46.753Z,91.9
2017-01-20T12:40:49.702Z,91.9
2017-01-20T12:41:53.155Z,91.9
2017-01-20T12:42:56.104Z,91.9
2017-01-20T12:43:59.053Z,91.9
2017-01-20T12:45:02.501Z,91.9
2017-01-20T12:46:05.453Z,91.9
2017-01-20T12:48:11.812Z,91.9
2017-01-20T12:49:14.754Z,91.9
2017-01-20T12:50:18.205Z,91.9
2017-01-20T12:51:21.149Z,91.9
2017-01-20T12:52:24.160Z,91.9
2017-01-20T12:53:27.618Z,91.9
2017-01-20T12:54:30.565Z,92
2017-01-20T12:55:34.013Z,92
2017-01-20T12:56:36.964Z,92
2017-01-20T12:57:39.916Z,92
2017-01-20T12:58:43.368Z,92
2017-01-20T12:59:46.478Z,92
2017-01-20T13:00:49.427Z,92
2017-01-20T13:01:52.371Z,92
2017-01-20T13:02:55.825Z,92
2017-01-20T13:03:58.780Z,92
2017-01-20T13:05:01.722Z,92
2017-01-20T13:06:05.172Z,92
2017-01-20T13:07:08.116Z,92
2017-01-20T13:08:11.562Z,92
2017-01-20T13:09:14.506Z,92
2017-01-20T13:10:17.451Z,92.1
2017-01-20T13:12:23.811Z,92.1
2017-01-20T13:13:27.268Z,92.1
2017-01-20T13:14:30.217Z,92.1
2017-01-20T13:15:33.166Z,92.1
2017-01-20T13:16:36.621Z,92.1
2017-01-20T13:17:39.567Z,92.1
2017-01-20T13:18:42.513Z,92.1
2017-01-20T13:19:45.964Z,92.1
2017-01-20T13:20:48.907Z,92.1
2017-01-20T13:21:52.358Z,92.1
2017-01-20T13:22:55.307Z,92.1
2017-01-20T13:23:58.254Z,92.1
2017-01-20T13:25:01.710Z,92.1
2017-01-20T13:26:04.654Z,92.1
2017-01-20T13:27:07.600Z,92.1
2017-01-20T13:28:11.059Z,92.1
2017-01-20T13:29:14.044Z,92.1
2017-01-20T13:30:16.990Z,92.1
2017-01-20T13:31:20.439Z,92.1
2017-01-20T13:32:23.387Z,92.1
2017-01-20T13:33:26.838Z,92.1
2017-01-20T13:34:29.786Z,92.1
2017-01-20T13:35:32.745Z,92.1
2017-01-20T13:36:36.197Z,92.1
2017-01-20T13:37:39.142Z,92.1
2017-01-20T13:38:42.087Z,92.2
2017-01-20T13:39:45.539Z,92.2
2017-01-20T13:40:48.484Z,92.2
2017-01-20T13:41:51.931Z,92.2
2017-01-20T13:42:54.876Z,92.2
2017-01-20T13:43:57.817Z,92.2
2017-01-20T13:45:01.266Z,92.2
2017-01-20T13:46:04.222Z,92.2
2017-01-20T13:47:07.168Z,92.2
2017-01-20T13:49:13.530Z,92.2
2017-01-20T13:50:16.981Z,92.2
2017-01-20T13:51:19.950Z,92.3
2017-01-20T13:52:22.896Z,92.3
2017-01-20T13:53:26.344Z,92.3
2017-01-20T13:54:29.293Z,92.3
2017-01-20T13:55:32.240Z,92.3
2017-01-20T13:56:35.692Z,92.3
2017-01-20T13:57:38.634Z,92.3
2017-01-20T13:58:42.083Z,92.3
2017-01-20T13:59:45.224Z,92.4
2017-01-20T14:00:48.165Z,92.4
2017-01-20T14:01:51.110Z,92.4
2017-01-20T14:02:54.562Z,92.4
2017-01-20T14:05:00.922Z,92.4
2017-01-20T14:06:03.869Z,92.4
2017-01-20T14:07:06.814Z,92.5
2017-01-20T14:08:10.260Z,92.5
2017-01-20T14:10:16.117Z,92.5
2017-01-20T14:11:19.574Z,92.5
2017-01-20T14:12:22.524Z,92.5
2017-01-20T14:13:25.978Z,92.6
2017-01-20T14:14:28.929Z,92.6
2017-01-20T14:15:31.872Z,92.6
2017-01-20T14:16:35.322Z,92.6
2017-01-20T14:17:38.269Z,92.6
2017-01-20T14:18:41.223Z,92.6
2017-01-20T14:19:44.676Z,92.7
2017-01-20T14:20:47.625Z,92.7
2017-01-20T14:21:51.072Z,92.7
2017-01-20T14:22:54.018Z,92.7
2017-01-20T14:23:56.964Z,92.7
2017-01-20T14:25:00.413Z,92.7
2017-01-20T14:26:03.357Z,92.7
2017-01-20T14:27:06.310Z,92.8
2017-01-20T14:28:09.757Z,92.8
2017-01-20T14:29:12.703Z,92.8
2017-01-20T14:30:15.655Z,92.8
2017-01-20T14:31:19.109Z,92.8
2017-01-20T14:32:22.056Z,92.8
2017-01-20T14:33:25.507Z,92.8
2017-01-20T14:34:28.451Z,92.8
2017-01-20T14:35:31.392Z,92.8